sensor_id;sensor_type;location;lat;lon;timestamp;temperature;humidity
1956;DHT22;978;48.314;11.562;2023-03-23T00:01:22;20.10;68.80
1956;DHT22;978;48.314;11.562;2023-03-23T00:03:53;20.10;68.80
1956;DHT22;978;48.314;11.562;2023-03-23T00:06:23;20.10;68.80
1956;DHT22;978;48.314;11.562;2023-03-23T00:08:52;20.10;68.80
1956;DHT22;978;48.314;11.562;2023-03-23T00:11:26;20.10;68.80
1956;DHT22;978;48.314;11.562;2023-03-23T00:13:56;20.10;68.80
1956;DHT22;978;48.314;11.562;2023-03-23T00:16:28;20.10;68.80
1956;DHT22;978;48.314;11.562;2023-03-23T00:18:57;20.10;68.80
1956;DHT22;978;48.314;11.562;2023-03-23T00:21:26;20.10;68.80
1956;DHT22;978;48.314;11.562;2023-03-23T00:24:00;20.10;68.80
1956;DHT22;978;48.314;11.562;2023-03-23T00:26:27;20.10;68.80
1956;DHT22;978;48.314;11.562;2023-03-23T00:28:55;20.10;68.90
1956;DHT22;978;48.314;11.562;2023-03-23T00:31:21;20.10;68.80
1956;DHT22;978;48.314;11.562;2023-03-23T00:33:48;20.10;68.80
1956;DHT22;978;48.314;11.562;2023-03-23T00:36:15;20.10;68.80
1956;DHT22;978;48.314;11.562;2023-03-23T00:38:43;20.10;68.80
1956;DHT22;978;48.314;11.562;2023-03-23T00:41:13;20.10;68.80
1956;DHT22;978;48.314;11.562;2023-03-23T00:43:40;20.10;68.70
1956;DHT22;978;48.314;11.562;2023-03-23T00:46:07;20.10;68.80
1956;DHT22;978;48.314;11.562;2023-03-23T00:48:36;20.10;68.70
1956;DHT22;978;48.314;11.562;2023-03-23T00:51:06;20.10;68.80
1956;DHT22;978;48.314;11.562;2023-03-23T00:53:36;20.10;68.80
1956;DHT22;978;48.314;11.562;2023-03-23T00:56:03;20.10;68.80
1956;DHT22;978;48.314;11.562;2023-03-23T00:58:31;20.10;68.80
1956;DHT22;978;48.314;11.562;2023-03-23T01:00:58;20.10;68.70
1956;DHT22;978;48.314;11.562;2023-03-23T01:03:25;20.10;68.80
1956;DHT22;978;48.314;11.562;2023-03-23T01:05:54;20.10;68.80
1956;DHT22;978;48.314;11.562;2023-03-23T01:08:21;20.10;68.80
1956;DHT22;978;48.314;11.562;2023-03-23T01:10:49;20.10;68.70
1956;DHT22;978;48.314;11.562;2023-03-23T01:13:16;20.10;68.80
1956;DHT22;978;48.314;11.562;2023-03-23T01:15:46;20.10;68.70
1956;DHT22;978;48.314;11.562;2023-03-23T01:18:12;20.10;68.70
1956;DHT22;978;48.314;11.562;2023-03-23T01:20:39;20.10;68.70
1956;DHT22;978;48.314;11.562;2023-03-23T01:23:07;20.10;68.70
1956;DHT22;978;48.314;11.562;2023-03-23T01:25:35;20.10;68.80
1956;DHT22;978;48.314;11.562;2023-03-23T01:28:02;20.10;68.80
1956;DHT22;978;48.314;11.562;2023-03-23T01:30:29;20.10;68.70
1956;DHT22;978;48.314;11.562;2023-03-23T01:32:58;20.10;68.70
1956;DHT22;978;48.314;11.562;2023-03-23T01:35:24;20.10;68.70
1956;DHT22;978;48.314;11.562;2023-03-23T01:37:51;20.10;68.70
1956;DHT22;978;48.314;11.562;2023-03-23T01:40:18;20.10;68.70
1956;DHT22;978;48.314;11.562;2023-03-23T01:42:45;20.10;68.70
1956;DHT22;978;48.314;11.562;2023-03-23T01:45:32;20.10;68.70
1956;DHT22;978;48.314;11.562;2023-03-23T01:48:06;20.10;68.70
1956;DHT22;978;48.314;11.562;2023-03-23T01:50:37;20.10;68.70
1956;DHT22;978;48.314;11.562;2023-03-23T01:53:08;20.10;68.70
1956;DHT22;978;48.314;11.562;2023-03-23T01:55:38;20.10;68.70
1956;DHT22;978;48.314;11.562;2023-03-23T01:58:06;20.10;68.70
1956;DHT22;978;48.314;11.562;2023-03-23T02:00:33;20.10;68.70
1956;DHT22;978;48.314;11.562;2023-03-23T02:03:04;20.10;68.70
1956;DHT22;978;48.314;11.562;2023-03-23T02:05:34;20.10;68.60
1956;DHT22;978;48.314;11.562;2023-03-23T02:08:04;20.10;68.60
1956;DHT22;978;48.314;11.562;2023-03-23T02:10:33;20.10;68.60
1956;DHT22;978;48.314;11.562;2023-03-23T02:13:03;20.10;69.20
1956;DHT22;978;48.314;11.562;2023-03-23T02:15:40;20.10;68.70
1956;DHT22;978;48.314;11.562;2023-03-23T02:18:17;20.10;68.60
1956;DHT22;978;48.314;11.562;2023-03-23T02:21:09;20.10;68.60
1956;DHT22;978;48.314;11.562;2023-03-23T02:24:07;20.10;68.60
1956;DHT22;978;48.314;11.562;2023-03-23T02:26:47;20.10;68.60
1956;DHT22;978;48.314;11.562;2023-03-23T02:29:44;20.10;68.60
1956;DHT22;978;48.314;11.562;2023-03-23T02:35:08;20.10;68.60
1956;DHT22;978;48.314;11.562;2023-03-23T02:37:39;20.10;68.60
1956;DHT22;978;48.314;11.562;2023-03-23T02:40:10;20.10;68.60
1956;DHT22;978;48.314;11.562;2023-03-23T02:42:41;20.10;68.60
1956;DHT22;978;48.314;11.562;2023-03-23T02:45:10;20.10;68.60
1956;DHT22;978;48.314;11.562;2023-03-23T02:47:38;20.10;68.60
1956;DHT22;978;48.314;11.562;2023-03-23T02:50:10;20.10;68.60
1956;DHT22;978;48.314;11.562;2023-03-23T02:52:40;20.10;68.60
1956;DHT22;978;48.314;11.562;2023-03-23T02:55:08;20.10;68.60
1956;DHT22;978;48.314;11.562;2023-03-23T02:57:37;20.10;68.60
1956;DHT22;978;48.314;11.562;2023-03-23T03:00:04;20.10;68.60
1956;DHT22;978;48.314;11.562;2023-03-23T03:02:36;20.10;68.50
1956;DHT22;978;48.314;11.562;2023-03-23T03:05:15;20.10;68.50
1956;DHT22;978;48.314;11.562;2023-03-23T03:07:52;20.10;68.50
1956;DHT22;978;48.314;11.562;2023-03-23T03:10:25;20.10;68.50
1956;DHT22;978;48.314;11.562;2023-03-23T03:12:56;20.10;68.50
1956;DHT22;978;48.314;11.562;2023-03-23T03:15:30;20.10;68.50
1956;DHT22;978;48.314;11.562;2023-03-23T03:18:05;20.10;68.50
1956;DHT22;978;48.314;11.562;2023-03-23T03:20:37;20.10;68.50
1956;DHT22;978;48.314;11.562;2023-03-23T03:23:07;20.10;68.40
1956;DHT22;978;48.314;11.562;2023-03-23T03:25:35;20.10;68.40
1956;DHT22;978;48.314;11.562;2023-03-23T03:28:03;20.10;68.40
1956;DHT22;978;48.314;11.562;2023-03-23T03:30:32;20.10;68.40
1956;DHT22;978;48.314;11.562;2023-03-23T03:33:01;20.10;68.50
1956;DHT22;978;48.314;11.562;2023-03-23T03:35:28;20.10;68.50
1956;DHT22;978;48.314;11.562;2023-03-23T03:38:05;20.10;68.40
1956;DHT22;978;48.314;11.562;2023-03-23T03:40:33;20.10;68.40
1956;DHT22;978;48.314;11.562;2023-03-23T03:43:00;20.10;68.40
1956;DHT22;978;48.314;11.562;2023-03-23T03:45:27;20.10;68.40
1956;DHT22;978;48.314;11.562;2023-03-23T03:47:54;20.10;68.40
1956;DHT22;978;48.314;11.562;2023-03-23T03:50:21;20.10;68.40
1956;DHT22;978;48.314;11.562;2023-03-23T03:52:48;20.10;68.40
1956;DHT22;978;48.314;11.562;2023-03-23T03:55:17;20.10;68.40
1956;DHT22;978;48.314;11.562;2023-03-23T03:57:43;20.10;68.40
1956;DHT22;978;48.314;11.562;2023-03-23T04:00:11;20.10;68.40
1956;DHT22;978;48.314;11.562;2023-03-23T04:02:41;20.10;68.40
1956;DHT22;978;48.314;11.562;2023-03-23T04:05:08;20.10;68.30
1956;DHT22;978;48.314;11.562;2023-03-23T04:07:36;20.10;68.30
1956;DHT22;978;48.314;11.562;2023-03-23T04:10:05;20.10;68.30
1956;DHT22;978;48.314;11.562;2023-03-23T04:12:34;20.10;68.30
1956;DHT22;978;48.314;11.562;2023-03-23T04:15:01;20.10;68.40
1956;DHT22;978;48.314;11.562;2023-03-23T04:17:28;20.10;68.30
1956;DHT22;978;48.314;11.562;2023-03-23T04:19:56;20.10;68.30
1956;DHT22;978;48.314;11.562;2023-03-23T04:22:25;20.10;68.30
1956;DHT22;978;48.314;11.562;2023-03-23T04:24:56;20.10;68.30
1956;DHT22;978;48.314;11.562;2023-03-23T04:27:24;20.10;68.30
1956;DHT22;978;48.314;11.562;2023-03-23T04:29:54;20.10;68.30
1956;DHT22;978;48.314;11.562;2023-03-23T04:32:23;20.10;68.20
1956;DHT22;978;48.314;11.562;2023-03-23T04:34:50;20.10;68.30
1956;DHT22;978;48.314;11.562;2023-03-23T04:37:17;20.10;68.30
1956;DHT22;978;48.314;11.562;2023-03-23T04:39:43;20.10;68.20
1956;DHT22;978;48.314;11.562;2023-03-23T04:42:10;20.10;68.20
1956;DHT22;978;48.314;11.562;2023-03-23T04:44:39;20.10;68.30
1956;DHT22;978;48.314;11.562;2023-03-23T04:47:09;20.10;68.20
1956;DHT22;978;48.314;11.562;2023-03-23T04:49:36;20.10;68.20
1956;DHT22;978;48.314;11.562;2023-03-23T04:52:03;20.10;68.20
1956;DHT22;978;48.314;11.562;2023-03-23T04:54:31;20.10;68.20
1956;DHT22;978;48.314;11.562;2023-03-23T04:56:57;20.10;68.20
1956;DHT22;978;48.314;11.562;2023-03-23T04:59:25;20.10;68.10
1956;DHT22;978;48.314;11.562;2023-03-23T05:01:53;20.10;68.10
1956;DHT22;978;48.314;11.562;2023-03-23T05:04:23;20.10;68.10
1956;DHT22;978;48.314;11.562;2023-03-23T05:06:50;20.10;68.10
1956;DHT22;978;48.314;11.562;2023-03-23T05:09:17;20.10;68.10
1956;DHT22;978;48.314;11.562;2023-03-23T05:11:44;20.10;68.10
1956;DHT22;978;48.314;11.562;2023-03-23T05:14:11;20.10;68.10
1956;DHT22;978;48.314;11.562;2023-03-23T05:16:38;20.10;68.10
1956;DHT22;978;48.314;11.562;2023-03-23T05:19:05;20.10;68.10
1956;DHT22;978;48.314;11.562;2023-03-23T05:21:34;20.10;68.00
1956;DHT22;978;48.314;11.562;2023-03-23T05:24:02;20.10;68.00
1956;DHT22;978;48.314;11.562;2023-03-23T05:26:29;20.10;68.00
1956;DHT22;978;48.314;11.562;2023-03-23T05:28:56;20.10;68.00
1956;DHT22;978;48.314;11.562;2023-03-23T05:31:24;20.10;68.00
1956;DHT22;978;48.314;11.562;2023-03-23T05:33:51;20.10;68.00
1956;DHT22;978;48.314;11.562;2023-03-23T05:36:18;20.10;68.00
1956;DHT22;978;48.314;11.562;2023-03-23T05:38:46;20.10;68.00
1956;DHT22;978;48.314;11.562;2023-03-23T05:41:15;20.10;68.00
1956;DHT22;978;48.314;11.562;2023-03-23T05:43:42;20.10;67.90
1956;DHT22;978;48.314;11.562;2023-03-23T05:46:08;20.10;68.00
1956;DHT22;978;48.314;11.562;2023-03-23T05:48:35;20.10;68.00
1956;DHT22;978;48.314;11.562;2023-03-23T05:51:03;20.10;68.00
1956;DHT22;978;48.314;11.562;2023-03-23T05:53:30;20.10;68.20
1956;DHT22;978;48.314;11.562;2023-03-23T05:55:59;20.10;68.20
1956;DHT22;978;48.314;11.562;2023-03-23T05:58:27;20.10;68.30
1956;DHT22;978;48.314;11.562;2023-03-23T06:00:53;20.10;68.30
1956;DHT22;978;48.314;11.562;2023-03-23T06:03:20;20.10;68.40
1956;DHT22;978;48.314;11.562;2023-03-23T06:05:48;20.10;68.40
1956;DHT22;978;48.314;11.562;2023-03-23T06:08:15;20.10;68.40
1956;DHT22;978;48.314;11.562;2023-03-23T06:10:42;20.10;68.30
1956;DHT22;978;48.314;11.562;2023-03-23T06:13:10;20.10;68.40
1956;DHT22;978;48.314;11.562;2023-03-23T06:15:37;20.10;68.40
1956;DHT22;978;48.314;11.562;2023-03-23T06:18:04;20.10;68.40
1956;DHT22;978;48.314;11.562;2023-03-23T06:20:32;20.10;68.40
1956;DHT22;978;48.314;11.562;2023-03-23T06:23:00;20.10;68.40
1956;DHT22;978;48.314;11.562;2023-03-23T06:25:28;20.10;68.40
1956;DHT22;978;48.314;11.562;2023-03-23T06:27:55;20.10;68.40
1956;DHT22;978;48.314;11.562;2023-03-23T06:30:23;20.10;68.40
1956;DHT22;978;48.314;11.562;2023-03-23T06:32:51;20.10;68.40
1956;DHT22;978;48.314;11.562;2023-03-23T06:35:18;20.10;68.40
1956;DHT22;978;48.314;11.562;2023-03-23T06:37:44;20.10;68.40
1956;DHT22;978;48.314;11.562;2023-03-23T06:40:11;20.10;68.40
1956;DHT22;978;48.314;11.562;2023-03-23T06:42:38;20.10;68.40
1956;DHT22;978;48.314;11.562;2023-03-23T06:45:06;20.10;68.40
1956;DHT22;978;48.314;11.562;2023-03-23T06:47:34;20.10;68.40
1956;DHT22;978;48.314;11.562;2023-03-23T06:50:01;20.10;68.40
1956;DHT22;978;48.314;11.562;2023-03-23T06:52:28;20.10;68.40
1956;DHT22;978;48.314;11.562;2023-03-23T06:54:55;20.10;68.30
1956;DHT22;978;48.314;11.562;2023-03-23T06:57:22;20.10;68.40
1956;DHT22;978;48.314;11.562;2023-03-23T06:59:48;20.10;68.30
1956;DHT22;978;48.314;11.562;2023-03-23T07:02:15;20.10;68.30
1956;DHT22;978;48.314;11.562;2023-03-23T07:04:43;20.10;68.30
1956;DHT22;978;48.314;11.562;2023-03-23T07:07:11;20.10;68.40
1956;DHT22;978;48.314;11.562;2023-03-23T07:09:40;20.10;68.30
1956;DHT22;978;48.314;11.562;2023-03-23T07:12:07;20.10;68.30
1956;DHT22;978;48.314;11.562;2023-03-23T07:14:35;20.10;68.30
1956;DHT22;978;48.314;11.562;2023-03-23T07:17:03;20.10;68.30
1956;DHT22;978;48.314;11.562;2023-03-23T07:19:29;20.10;68.30
1956;DHT22;978;48.314;11.562;2023-03-23T07:21:58;20.10;68.30
1956;DHT22;978;48.314;11.562;2023-03-23T07:24:25;20.10;68.30
1956;DHT22;978;48.314;11.562;2023-03-23T07:26:53;20.10;68.30
1956;DHT22;978;48.314;11.562;2023-03-23T07:29:19;20.10;68.30
1956;DHT22;978;48.314;11.562;2023-03-23T07:31:46;20.10;68.30
1956;DHT22;978;48.314;11.562;2023-03-23T07:34:13;20.10;68.30
1956;DHT22;978;48.314;11.562;2023-03-23T07:36:40;20.10;68.30
1956;DHT22;978;48.314;11.562;2023-03-23T07:39:08;20.10;68.30
1956;DHT22;978;48.314;11.562;2023-03-23T07:41:35;20.10;68.30
1956;DHT22;978;48.314;11.562;2023-03-23T07:44:02;20.10;68.30
1956;DHT22;978;48.314;11.562;2023-03-23T07:46:29;20.10;68.30
1956;DHT22;978;48.314;11.562;2023-03-23T07:48:56;20.10;68.30
1956;DHT22;978;48.314;11.562;2023-03-23T07:51:23;20.10;68.30
1956;DHT22;978;48.314;11.562;2023-03-23T07:53:50;20.10;68.30
1956;DHT22;978;48.314;11.562;2023-03-23T07:56:19;20.10;68.30
1956;DHT22;978;48.314;11.562;2023-03-23T07:58:46;20.10;68.30
1956;DHT22;978;48.314;11.562;2023-03-23T08:01:13;20.10;68.30
1956;DHT22;978;48.314;11.562;2023-03-23T08:03:41;20.10;68.30
1956;DHT22;978;48.314;11.562;2023-03-23T08:06:08;20.10;68.30
1956;DHT22;978;48.314;11.562;2023-03-23T08:08:35;20.10;68.30
1956;DHT22;978;48.314;11.562;2023-03-23T08:11:02;20.10;68.30
1956;DHT22;978;48.314;11.562;2023-03-23T08:13:30;20.10;68.30
1956;DHT22;978;48.314;11.562;2023-03-23T08:15:58;20.10;68.30
1956;DHT22;978;48.314;11.562;2023-03-23T08:18:25;20.10;68.30
1956;DHT22;978;48.314;11.562;2023-03-23T08:20:52;20.10;68.30
1956;DHT22;978;48.314;11.562;2023-03-23T08:23:19;20.10;68.20
1956;DHT22;978;48.314;11.562;2023-03-23T08:25:47;20.10;68.30
1956;DHT22;978;48.314;11.562;2023-03-23T08:28:13;20.10;68.30
1956;DHT22;978;48.314;11.562;2023-03-23T08:30:42;20.10;68.30
1956;DHT22;978;48.314;11.562;2023-03-23T08:33:08;20.10;68.30
1956;DHT22;978;48.314;11.562;2023-03-23T08:35:37;20.10;68.30
1956;DHT22;978;48.314;11.562;2023-03-23T08:38:04;20.10;68.30
1956;DHT22;978;48.314;11.562;2023-03-23T08:40:31;20.10;68.30
1956;DHT22;978;48.314;11.562;2023-03-23T08:42:59;20.10;68.20
1956;DHT22;978;48.314;11.562;2023-03-23T08:45:25;20.10;68.20
1956;DHT22;978;48.314;11.562;2023-03-23T08:47:54;20.10;68.20
1956;DHT22;978;48.314;11.562;2023-03-23T08:50:24;20.10;68.20
1956;DHT22;978;48.314;11.562;2023-03-23T08:52:52;20.10;68.10
1956;DHT22;978;48.314;11.562;2023-03-23T08:55:20;20.10;68.10
1956;DHT22;978;48.314;11.562;2023-03-23T08:57:47;20.10;68.10
1956;DHT22;978;48.314;11.562;2023-03-23T09:00:17;20.20;68.10
1956;DHT22;978;48.314;11.562;2023-03-23T09:02:46;20.10;68.10
1956;DHT22;978;48.314;11.562;2023-03-23T09:05:15;20.10;68.10
1956;DHT22;978;48.314;11.562;2023-03-23T09:07:44;20.10;68.10
1956;DHT22;978;48.314;11.562;2023-03-23T09:10:12;20.10;68.10
1956;DHT22;978;48.314;11.562;2023-03-23T09:12:39;20.10;68.10
1956;DHT22;978;48.314;11.562;2023-03-23T09:15:07;20.10;68.10
1956;DHT22;978;48.314;11.562;2023-03-23T09:17:35;20.10;68.10
1956;DHT22;978;48.314;11.562;2023-03-23T09:20:03;20.10;68.20
1956;DHT22;978;48.314;11.562;2023-03-23T09:22:34;20.10;68.10
1956;DHT22;978;48.314;11.562;2023-03-23T09:25:00;20.10;68.10
1956;DHT22;978;48.314;11.562;2023-03-23T09:27:27;20.10;68.10
1956;DHT22;978;48.314;11.562;2023-03-23T09:29:54;20.20;68.10
1956;DHT22;978;48.314;11.562;2023-03-23T09:32:21;20.10;68.00
1956;DHT22;978;48.314;11.562;2023-03-23T09:34:48;20.10;68.20
1956;DHT22;978;48.314;11.562;2023-03-23T09:37:16;20.10;68.00
1956;DHT22;978;48.314;11.562;2023-03-23T09:39:45;20.10;68.00
1956;DHT22;978;48.314;11.562;2023-03-23T09:42:19;20.20;68.00
1956;DHT22;978;48.314;11.562;2023-03-23T09:44:59;20.20;68.10
1956;DHT22;978;48.314;11.562;2023-03-23T09:47:35;20.20;68.10
1956;DHT22;978;48.314;11.562;2023-03-23T09:50:09;20.20;68.20
1956;DHT22;978;48.314;11.562;2023-03-23T09:52:41;20.20;68.20
1956;DHT22;978;48.314;11.562;2023-03-23T09:55:13;20.20;68.20
1956;DHT22;978;48.314;11.562;2023-03-23T09:57:45;20.20;68.30
1956;DHT22;978;48.314;11.562;2023-03-23T10:00:16;20.20;68.30
1956;DHT22;978;48.314;11.562;2023-03-23T10:02:52;20.20;68.30
1956;DHT22;978;48.314;11.562;2023-03-23T10:05:27;20.20;68.40
1956;DHT22;978;48.314;11.562;2023-03-23T10:07:56;20.20;68.40
1956;DHT22;978;48.314;11.562;2023-03-23T10:10:35;20.20;68.40
1956;DHT22;978;48.314;11.562;2023-03-23T10:13:08;20.20;68.40
1956;DHT22;978;48.314;11.562;2023-03-23T10:15:38;20.20;68.50
1956;DHT22;978;48.314;11.562;2023-03-23T10:18:24;20.20;68.50
1956;DHT22;978;48.314;11.562;2023-03-23T10:20:54;20.20;68.50
1956;DHT22;978;48.314;11.562;2023-03-23T10:23:52;20.20;68.50
1956;DHT22;978;48.314;11.562;2023-03-23T10:26:32;20.20;68.40
1956;DHT22;978;48.314;11.562;2023-03-23T10:29:08;20.20;68.40
1956;DHT22;978;48.314;11.562;2023-03-23T10:31:38;20.20;68.30
1956;DHT22;978;48.314;11.562;2023-03-23T10:34:12;20.20;68.30
1956;DHT22;978;48.314;11.562;2023-03-23T10:36:55;20.20;68.30
1956;DHT22;978;48.314;11.562;2023-03-23T10:39:26;20.20;68.10
1956;DHT22;978;48.314;11.562;2023-03-23T10:41:56;20.20;68.10
1956;DHT22;978;48.314;11.562;2023-03-23T10:44:28;20.20;68.00
1956;DHT22;978;48.314;11.562;2023-03-23T10:46:59;20.20;68.00
1956;DHT22;978;48.314;11.562;2023-03-23T10:49:28;20.20;67.90
1956;DHT22;978;48.314;11.562;2023-03-23T10:52:00;20.20;67.90
1956;DHT22;978;48.314;11.562;2023-03-23T10:54:34;20.10;67.70
1956;DHT22;978;48.314;11.562;2023-03-23T10:57:12;20.20;67.70
1956;DHT22;978;48.314;11.562;2023-03-23T10:59:40;20.20;67.70
1956;DHT22;978;48.314;11.562;2023-03-23T11:02:19;20.10;67.60
1956;DHT22;978;48.314;11.562;2023-03-23T11:04:55;20.20;67.60
1956;DHT22;978;48.314;11.562;2023-03-23T11:07:26;20.10;67.50
1956;DHT22;978;48.314;11.562;2023-03-23T11:09:55;20.10;67.40
1956;DHT22;978;48.314;11.562;2023-03-23T11:12:24;20.10;67.40
1956;DHT22;978;48.314;11.562;2023-03-23T11:14:51;20.10;67.90
1956;DHT22;978;48.314;11.562;2023-03-23T11:17:23;20.20;67.30
1956;DHT22;978;48.314;11.562;2023-03-23T11:19:50;20.20;67.30
1956;DHT22;978;48.314;11.562;2023-03-23T11:22:23;20.20;67.30
1956;DHT22;978;48.314;11.562;2023-03-23T11:24:53;20.10;67.20
1956;DHT22;978;48.314;11.562;2023-03-23T11:27:21;20.10;67.20
1956;DHT22;978;48.314;11.562;2023-03-23T11:29:53;20.10;67.20
1956;DHT22;978;48.314;11.562;2023-03-23T11:32:24;20.10;67.20
1956;DHT22;978;48.314;11.562;2023-03-23T11:34:56;20.20;67.20
1956;DHT22;978;48.314;11.562;2023-03-23T11:37:28;20.10;67.20
1956;DHT22;978;48.314;11.562;2023-03-23T11:39:57;20.10;67.20
1956;DHT22;978;48.314;11.562;2023-03-23T11:42:25;20.10;67.20
1956;DHT22;978;48.314;11.562;2023-03-23T11:45:13;20.10;67.20
1956;DHT22;978;48.314;11.562;2023-03-23T11:47:45;20.10;67.20
1956;DHT22;978;48.314;11.562;2023-03-23T11:50:17;20.10;67.20
1956;DHT22;978;48.314;11.562;2023-03-23T11:52:49;20.10;67.20
1956;DHT22;978;48.314;11.562;2023-03-23T11:55:22;20.10;67.20
1956;DHT22;978;48.314;11.562;2023-03-23T11:57:51;20.10;67.20
1956;DHT22;978;48.314;11.562;2023-03-23T12:00:21;20.10;67.20
1956;DHT22;978;48.314;11.562;2023-03-23T12:05:45;20.10;67.20
1956;DHT22;978;48.314;11.562;2023-03-23T12:08:27;20.10;67.20
1956;DHT22;978;48.314;11.562;2023-03-23T12:11:01;20.10;67.20
1956;DHT22;978;48.314;11.562;2023-03-23T12:13:48;20.10;67.10
1956;DHT22;978;48.314;11.562;2023-03-23T12:16:30;20.10;67.10
1956;DHT22;978;48.314;11.562;2023-03-23T12:19:03;20.20;67.10
1956;DHT22;978;48.314;11.562;2023-03-23T12:21:42;20.10;67.10
1956;DHT22;978;48.314;11.562;2023-03-23T12:24:16;20.10;67.10
1956;DHT22;978;48.314;11.562;2023-03-23T12:26:50;20.10;67.10
1956;DHT22;978;48.314;11.562;2023-03-23T12:29:37;20.10;67.10
1956;DHT22;978;48.314;11.562;2023-03-23T12:32:25;20.10;67.10
1956;DHT22;978;48.314;11.562;2023-03-23T12:35:01;20.20;67.20
1956;DHT22;978;48.314;11.562;2023-03-23T12:37:39;20.10;67.20
1956;DHT22;978;48.314;11.562;2023-03-23T12:40:32;20.10;67.10
1956;DHT22;978;48.314;11.562;2023-03-23T12:43:07;20.10;67.10
1956;DHT22;978;48.314;11.562;2023-03-23T12:45:50;20.10;67.10
1956;DHT22;978;48.314;11.562;2023-03-23T12:48:23;20.10;67.10
1956;DHT22;978;48.314;11.562;2023-03-23T12:51:13;20.10;67.10
1956;DHT22;978;48.314;11.562;2023-03-23T12:53:46;20.10;67.10
1956;DHT22;978;48.314;11.562;2023-03-23T12:56:18;20.10;67.10
1956;DHT22;978;48.314;11.562;2023-03-23T12:58:49;20.10;67.00
1956;DHT22;978;48.314;11.562;2023-03-23T13:01:19;20.10;67.00
1956;DHT22;978;48.314;11.562;2023-03-23T13:03:52;20.10;67.00
1956;DHT22;978;48.314;11.562;2023-03-23T13:06:25;20.10;67.00
1956;DHT22;978;48.314;11.562;2023-03-23T13:08:59;20.10;67.00
1956;DHT22;978;48.314;11.562;2023-03-23T13:11:31;20.10;67.00
1956;DHT22;978;48.314;11.562;2023-03-23T13:14:06;20.10;67.00
1956;DHT22;978;48.314;11.562;2023-03-23T13:16:40;20.10;66.90
1956;DHT22;978;48.314;11.562;2023-03-23T13:19:16;20.10;67.00
1956;DHT22;978;48.314;11.562;2023-03-23T13:21:47;20.10;66.90
1956;DHT22;978;48.314;11.562;2023-03-23T13:24:19;20.10;66.90
1956;DHT22;978;48.314;11.562;2023-03-23T13:26:49;20.10;66.90
1956;DHT22;978;48.314;11.562;2023-03-23T13:29:18;20.10;66.90
1956;DHT22;978;48.314;11.562;2023-03-23T13:31:46;20.10;66.90
1956;DHT22;978;48.314;11.562;2023-03-23T13:34:19;20.10;66.90
1956;DHT22;978;48.314;11.562;2023-03-23T13:36:53;20.10;66.90
1956;DHT22;978;48.314;11.562;2023-03-23T13:39:24;20.20;66.90
1956;DHT22;978;48.314;11.562;2023-03-23T13:42:01;20.20;66.90
1956;DHT22;978;48.314;11.562;2023-03-23T13:44:42;20.10;66.80
1956;DHT22;978;48.314;11.562;2023-03-23T13:47:21;20.10;66.80
1956;DHT22;978;48.314;11.562;2023-03-23T13:49:51;20.10;66.80
1956;DHT22;978;48.314;11.562;2023-03-23T13:52:23;20.10;66.80
1956;DHT22;978;48.314;11.562;2023-03-23T13:54:51;20.10;66.80
1956;DHT22;978;48.314;11.562;2023-03-23T13:57:23;20.10;66.80
1956;DHT22;978;48.314;11.562;2023-03-23T13:59:57;20.10;66.80
1956;DHT22;978;48.314;11.562;2023-03-23T14:02:36;20.10;66.80
1956;DHT22;978;48.314;11.562;2023-03-23T14:05:30;20.10;66.80
1956;DHT22;978;48.314;11.562;2023-03-23T14:07:59;20.10;66.80
1956;DHT22;978;48.314;11.562;2023-03-23T14:10:38;20.10;66.80
1956;DHT22;978;48.314;11.562;2023-03-23T14:13:13;20.10;66.80
1956;DHT22;978;48.314;11.562;2023-03-23T14:15:43;20.10;66.80
1956;DHT22;978;48.314;11.562;2023-03-23T14:18:14;20.10;66.80
1956;DHT22;978;48.314;11.562;2023-03-23T14:20:45;20.10;66.80
1956;DHT22;978;48.314;11.562;2023-03-23T14:23:15;20.10;66.80
1956;DHT22;978;48.314;11.562;2023-03-23T14:25:43;20.10;66.80
1956;DHT22;978;48.314;11.562;2023-03-23T14:28:17;20.10;66.80
1956;DHT22;978;48.314;11.562;2023-03-23T14:30:44;20.10;66.80
1956;DHT22;978;48.314;11.562;2023-03-23T14:33:12;20.10;66.80
1956;DHT22;978;48.314;11.562;2023-03-23T14:35:42;20.10;66.80
1956;DHT22;978;48.314;11.562;2023-03-23T14:38:15;20.10;66.80
1956;DHT22;978;48.314;11.562;2023-03-23T14:40:44;20.10;66.80
1956;DHT22;978;48.314;11.562;2023-03-23T14:43:13;20.10;66.80
1956;DHT22;978;48.314;11.562;2023-03-23T14:45:41;20.20;66.80
1956;DHT22;978;48.314;11.562;2023-03-23T14:48:12;20.10;66.80
1956;DHT22;978;48.314;11.562;2023-03-23T14:50:41;20.20;66.80
1956;DHT22;978;48.314;11.562;2023-03-23T14:53:15;20.10;66.80
1956;DHT22;978;48.314;11.562;2023-03-23T14:55:45;20.10;66.80
1956;DHT22;978;48.314;11.562;2023-03-23T14:58:14;20.10;66.80
1956;DHT22;978;48.314;11.562;2023-03-23T15:00:43;20.10;66.90
1956;DHT22;978;48.314;11.562;2023-03-23T15:03:12;20.10;66.80
1956;DHT22;978;48.314;11.562;2023-03-23T15:05:43;20.10;66.80
1956;DHT22;978;48.314;11.562;2023-03-23T15:08:15;20.10;66.80
1956;DHT22;978;48.314;11.562;2023-03-23T15:10:52;20.10;66.80
1956;DHT22;978;48.314;11.562;2023-03-23T15:13:19;20.10;66.80
1956;DHT22;978;48.314;11.562;2023-03-23T15:15:46;20.10;66.80
1956;DHT22;978;48.314;11.562;2023-03-23T15:18:29;20.10;66.80
1956;DHT22;978;48.314;11.562;2023-03-23T15:20:56;20.10;66.80
1956;DHT22;978;48.314;11.562;2023-03-23T15:23:28;20.10;66.80
1956;DHT22;978;48.314;11.562;2023-03-23T15:26:05;20.10;66.80
1956;DHT22;978;48.314;11.562;2023-03-23T15:28:32;20.10;66.80
1956;DHT22;978;48.314;11.562;2023-03-23T15:31:02;20.20;66.80
1956;DHT22;978;48.314;11.562;2023-03-23T15:33:34;20.10;66.80
1956;DHT22;978;48.314;11.562;2023-03-23T15:36:06;20.10;66.80
1956;DHT22;978;48.314;11.562;2023-03-23T15:38:35;20.20;67.00
1956;DHT22;978;48.314;11.562;2023-03-23T15:41:03;20.20;67.00
1956;DHT22;978;48.314;11.562;2023-03-23T15:43:32;20.20;67.00
1956;DHT22;978;48.314;11.562;2023-03-23T15:46:00;20.20;67.00
1956;DHT22;978;48.314;11.562;2023-03-23T15:48:29;20.20;67.00
1956;DHT22;978;48.314;11.562;2023-03-23T15:50:57;20.20;67.00
1956;DHT22;978;48.314;11.562;2023-03-23T15:53:29;20.20;67.00
1956;DHT22;978;48.314;11.562;2023-03-23T15:56:00;20.20;67.00
1956;DHT22;978;48.314;11.562;2023-03-23T15:58:28;20.20;67.00
1956;DHT22;978;48.314;11.562;2023-03-23T16:00:55;20.20;67.00
1956;DHT22;978;48.314;11.562;2023-03-23T16:03:25;20.20;67.00
1956;DHT22;978;48.314;11.562;2023-03-23T16:05:53;20.20;67.00
1956;DHT22;978;48.314;11.562;2023-03-23T16:08:20;20.20;67.00
1956;DHT22;978;48.314;11.562;2023-03-23T16:10:47;20.20;67.00
1956;DHT22;978;48.314;11.562;2023-03-23T16:13:15;20.20;67.00
1956;DHT22;978;48.314;11.562;2023-03-23T16:15:43;20.20;66.90
1956;DHT22;978;48.314;11.562;2023-03-23T16:18:16;20.20;66.90
1956;DHT22;978;48.314;11.562;2023-03-23T16:20:44;20.20;66.90
1956;DHT22;978;48.314;11.562;2023-03-23T16:23:10;20.20;67.00
1956;DHT22;978;48.314;11.562;2023-03-23T16:25:37;20.20;67.00
1956;DHT22;978;48.314;11.562;2023-03-23T16:28:04;20.20;67.00